Time;durP1;ratioP1;P1;durP2;ratioP2;P2;SDS_P1;SDS_P2;PMS_P1;PMS_P2;Temp;Humidity;BMP_temperature;BMP_pressure;BME280_temperature;BME280_humidity;BME280_pressure;Samples;Min_cycle;Max_cycle;Signal;HPM_P1;HPM_P2
2022/06/26 00:01:14;;;;;;;1.80;1.60;;;19.80;90.30;;;19.12;63.91;97020.56;5030427;28;20811;-75
2022/06/26 00:03:40;;;;;;;3.10;1.33;;;19.80;90.40;;;19.09;64.23;97019.34;5030549;28;20490;-75
2022/06/26 00:06:06;;;;;;;3.30;1.50;;;19.80;90.60;;;19.09;64.07;97024.69;5030247;28;20403;-75
2022/06/26 00:08:32;;;;;;;1.90;1.40;;;19.80;90.60;;;19.14;63.61;97027.22;5029939;28;20418;-75
2022/06/26 00:10:58;;;;;;;1.42;1.30;;;19.80;90.40;;;19.09;63.96;97026.59;5029889;28;20407;-75
2022/06/26 00:13:24;;;;;;;5.68;1.70;;;19.80;90.40;;;19.07;64.05;97039.53;5030417;28;20877;-75
2022/06/26 00:15:50;;;;;;;2.08;1.38;;;19.70;90.60;;;19.08;64.08;97049.16;5030432;28;20407;-75
2022/06/26 00:18:18;;;;;;;3.70;1.50;;;19.70;90.70;;;19.07;64.09;97052.94;5029884;28;20472;-75
2022/06/26 00:20:44;;;;;;;2.80;1.52;;;19.80;90.70;;;19.07;64.31;97052.94;5030120;28;20892;-75
2022/06/26 00:23:09;;;;;;;1.40;1.30;;;19.70;90.80;;;19.07;64.31;97063.66;5030447;28;20454;-75
2022/06/26 00:25:36;;;;;;;1.40;1.30;;;19.70;90.90;;;19.10;64.37;97071.88;5030187;28;20403;-76
2022/06/26 00:28:02;;;;;;;1.77;1.40;;;19.80;91.10;;;19.12;64.03;97071.56;5029692;28;20399;-75
2022/06/26 00:30:28;;;;;;;2.78;1.42;;;19.80;91.00;;;19.17;64.12;97082.16;5030083;28;20399;-75
2022/06/26 00:32:54;;;;;;;1.83;1.30;;;19.80;90.80;;;19.19;63.98;97098.72;5030270;28;20417;-76
2022/06/26 00:35:21;;;;;;;1.30;1.20;;;19.90;90.80;;;19.22;64.12;97093.53;5030003;28;20765;-75
2022/06/26 00:37:48;;;;;;;1.77;1.27;;;19.90;90.90;;;19.29;64.25;97088.47;5030098;28;20418;-76
2022/06/26 00:40:14;;;;;;;3.33;1.50;;;20.00;91.10;;;19.39;63.98;97086.59;5029256;28;20419;-75
2022/06/26 00:42:41;;;;;;;1.90;1.40;;;20.10;91.00;;;19.49;63.15;97099.72;5030142;28;20402;-75
2022/06/26 00:45:08;;;;;;;1.38;1.10;;;20.10;90.30;;;19.53;63.28;97100.69;5030083;28;20411;-75
2022/06/26 00:47:35;;;;;;;1.73;1.40;;;20.20;90.10;;;19.59;62.09;97100.22;5029882;28;20776;-75
2022/06/26 00:50:01;;;;;;;1.60;1.20;;;20.20;89.40;;;19.65;62.20;97112.38;5029245;28;20453;-74
2022/06/26 00:52:28;;;;;;;2.45;1.50;;;20.30;88.70;;;19.71;62.14;97113.00;5029713;28;20411;-74
2022/06/26 00:54:54;;;;;;;2.08;1.48;;;20.40;88.60;;;19.79;60.96;97128.31;5029757;28;20422;-75
2022/06/26 00:57:21;;;;;;;2.90;1.40;;;20.40;86.10;;;19.84;60.41;97122.03;5029688;28;20418;-74
2022/06/26 00:59:49;;;;;;;2.78;1.50;;;20.40;85.10;;;19.88;60.36;97125.66;5029334;28;21145;-74
2022/06/26 01:02:15;;;;;;;2.75;1.30;;;20.50;84.90;;;19.91;60.25;97122.34;5029667;28;20411;-75
2022/06/26 01:04:41;;;;;;;3.80;1.63;;;20.50;84.80;;;19.93;60.44;97126.25;5029783;28;20550;-74
2022/06/26 01:07:08;;;;;;;1.60;1.50;;;20.50;84.80;;;19.94;60.67;97130.53;5029701;28;20396;-74
2022/06/26 01:09:35;;;;;;;2.55;1.50;;;20.50;85.20;;;19.98;60.89;97122.66;5029261;28;20464;-75
2022/06/26 01:12:02;;;;;;;1.73;1.58;;;20.60;85.50;;;19.98;61.11;97128.00;5028315;28;20462;-75
2022/06/26 01:14:30;;;;;;;2.97;1.70;;;20.60;86.00;;;20.03;60.98;97117.88;5029785;28;20777;-74
2022/06/26 01:16:56;;;;;;;2.03;1.60;;;20.60;85.70;;;20.02;61.16;97116.31;5029503;28;20448;-74
2022/06/26 01:19:23;;;;;;;1.88;1.58;;;20.60;86.00;;;20.04;61.44;97105.25;5029008;28;20425;-75
2022/06/26 01:21:49;;;;;;;1.98;1.38;;;20.60;86.30;;;20.06;61.66;97105.72;5031004;28;20403;-74
2022/06/26 01:24:16;;;;;;;1.80;1.50;;;20.70;86.70;;;20.07;62.05;97102.69;5033663;28;20773;-74
2022/06/26 01:26:42;;;;;;;2.15;1.40;;;20.70;87.70;;;20.10;62.25;97101.28;5033600;28;20394;-74
2022/06/26 01:29:09;;;;;;;2.58;1.35;;;20.70;88.10;;;20.11;63.74;97089.41;5033068;28;20402;-75
2022/06/26 01:31:35;;;;;;;3.00;1.45;;;20.70;90.10;;;20.09;65.23;97078.19;5033212;28;20498;-74
2022/06/26 01:34:03;;;;;;;3.55;1.42;;;20.70;91.60;;;20.04;67.09;97079.16;5033388;28;20833;-75
2022/06/26 01:36:29;;;;;;;3.47;1.90;;;20.70;93.60;;;19.97;68.81;97081.56;5033291;28;20977;-74
2022/06/26 01:38:55;;;;;;;2.07;1.60;;;20.60;95.50;;;19.84;70.68;97076.34;5032716;28;20449;-74
2022/06/26 01:41:22;;;;;;;2.80;1.80;;;20.50;97.80;;;19.76;72.69;97101.31;5033152;28;20497;-75
2022/06/26 01:43:48;;;;;;;1.70;1.40;;;20.40;99.90;;;19.68;72.21;97133.25;5033342;28;20399;-75
2022/06/26 01:46:14;;;;;;;2.78;1.85;;;20.30;99.90;;;19.55;71.84;97128.78;5033122;28;20452;-75
2022/06/26 01:48:40;;;;;;;1.63;1.50;;;20.20;99.90;;;19.49;72.13;97111.25;5032587;28;20395;-75
2022/06/26 01:51:07;;;;;;;1.93;1.60;;;20.10;99.90;;;19.48;72.19;97123.09;5033171;28;20403;-75
2022/06/26 01:53:34;;;;;;;2.50;1.60;;;20.10;99.90;;;19.47;71.12;97124.19;5033051;28;20449;-74
2022/06/26 01:56:01;;;;;;;2.83;2.08;;;20.10;99.90;;;19.46;71.46;97109.19;5032952;28;20460;-75
2022/06/26 01:58:28;;;;;;;2.08;1.65;;;20.10;99.90;;;19.47;71.79;97110.00;5032415;28;20423;-74
2022/06/26 02:00:54;;;;;;;2.08;1.50;;;20.10;99.90;;;19.49;71.63;97107.78;5032647;28;20453;-75
2022/06/26 02:03:21;;;;;;;2.72;1.70;;;20.10;99.90;;;19.48;71.37;97112.34;5032934;28;20395;-75
2022/06/26 02:05:48;;;;;;;1.92;1.55;;;20.10;99.90;;;19.46;71.15;97124.50;5032832;28;20442;-75
2022/06/26 02:08:14;;;;;;;1.98;1.60;;;20.10;99.90;;;19.44;70.77;97121.34;5032255;28;20406;-75
2022/06/26 02:13:42;;;;;;;3.33;1.57;;;20.00;99.90;;;19.29;70.77;97128.75;5032835;28;20757;-76
2022/06/26 02:16:12;;;;;;;3.23;1.80;;;19.90;99.90;;;19.20;71.03;97125.25;5032636;28;20407;-75
2022/06/26 02:18:40;;;;;;;2.05;1.50;;;19.90;99.90;;;19.13;71.15;97132.97;5031779;28;20415;-75
2022/06/26 02:21:08;;;;;;;3.63;1.67;;;19.80;99.90;;;19.06;71.23;97129.94;5032470;28;20402;-75
2022/06/26 02:23:35;;;;;;;2.38;1.60;;;19.70;99.90;;;19.00;71.13;97141.94;5032658;28;20418;-75
2022/06/26 02:26:01;;;;;;;3.13;1.67;;;19.70;99.90;;;18.93;70.89;97137.03;5032417;28;20498;-74
2022/06/26 02:28:27;;;;;;;1.77;1.42;;;19.60;99.90;;;18.85;71.10;97145.81;5030739;28;20457;-74
2022/06/26 02:30:53;;;;;;;2.45;1.70;;;19.60;99.90;;;18.80;71.34;97142.47;5032172;28;20406;-75
2022/06/26 02:33:22;;;;;;;2.17;1.48;;;19.50;99.90;;;18.78;71.06;97145.47;5032160;28;20826;-75
2022/06/26 02:35:48;;;;;;;2.00;1.50;;;19.50;99.90;;;18.74;71.39;97143.72;5032450;28;20446;-74
2022/06/26 02:38:15;;;;;;;1.63;1.50;;;19.40;99.90;;;18.74;71.55;97135.66;5031682;28;20932;-74
2022/06/26 02:40:42;;;;;;;4.20;1.50;;;19.40;99.90;;;18.74;71.40;97128.41;5032006;28;20395;-74
2022/06/26 02:43:08;;;;;;;2.27;1.60;;;19.50;99.90;;;18.77;71.52;97132.38;5032507;28;20769;-75
2022/06/26 02:45:34;;;;;;;1.50;1.38;;;19.40;99.90;;;18.75;71.28;97134.56;5032070;28;20498;-74
2022/06/26 02:48:00;;;;;;;1.58;1.48;;;19.40;99.90;;;18.74;71.36;97132.97;5032129;28;20395;-74
2022/06/26 02:50:27;;;;;;;3.22;1.45;;;19.40;99.90;;;18.73;71.04;97128.72;5031642;28;20422;-74
2022/06/26 02:52:53;;;;;;;1.58;1.48;;;19.40;99.90;;;18.70;71.12;97127.47;5032062;28;20419;-75
2022/06/26 02:55:19;;;;;;;2.03;1.70;;;19.40;99.90;;;18.68;70.79;97132.34;5032001;28;20413;-75
2022/06/26 02:57:45;;;;;;;1.90;1.60;;;19.40;99.90;;;18.63;71.05;97134.38;5031776;28;20415;-74
2022/06/26 03:00:14;;;;;;;1.77;1.48;;;19.30;99.90;;;18.61;70.96;97133.88;5031200;28;20403;-74
2022/06/26 03:02:41;;;;;;;1.60;1.45;;;19.30;99.90;;;18.59;71.08;97134.19;5031778;28;20441;-74
2022/06/26 03:05:08;;;;;;;2.22;1.40;;;19.30;99.90;;;18.55;71.32;97134.00;5031895;28;20928;-74
2022/06/26 03:07:35;;;;;;;1.75;1.50;;;19.20;99.90;;;18.53;71.54;97133.50;5031621;28;20411;-75
2022/06/26 03:10:01;;;;;;;1.57;1.40;;;19.20;99.90;;;18.52;71.72;97139.16;5031093;28;20399;-74
2022/06/26 03:12:27;;;;;;;1.70;1.30;;;19.20;99.90;;;18.50;72.00;97126.06;5031556;28;20482;-74
2022/06/26 03:14:53;;;;;;;1.70;1.50;;;19.20;99.90;;;18.51;72.26;97124.16;5031874;28;20418;-74
2022/06/26 03:17:19;;;;;;;2.15;1.40;;;19.20;99.90;;;18.52;72.39;97123.88;5031507;28;21017;-75
2022/06/26 03:19:45;;;;;;;1.50;1.40;;;19.20;99.90;;;18.54;72.58;97123.56;5031045;28;20403;-75
2022/06/26 03:22:11;;;;;;;5.38;1.90;;;19.20;99.90;;;18.53;72.49;97117.41;5031411;28;20415;-74
2022/06/26 03:24:38;;;;;;;2.90;1.25;;;19.30;99.90;;;18.52;72.46;97123.06;5031318;28;20414;-74
2022/06/26 03:27:05;;;;;;;2.63;1.70;;;19.20;99.90;;;18.49;72.46;97129.84;5031337;28;20395;-74
2022/06/26 03:29:30;;;;;;;1.60;1.40;;;19.20;99.90;;;18.44;72.61;97115.78;5030904;28;20465;-74
2022/06/26 03:31:56;;;;;;;3.47;1.58;;;19.20;99.90;;;18.40;72.50;97110.25;5031093;28;20407;-74
2022/06/26 03:34:22;;;;;;;1.80;1.45;;;19.10;99.90;;;18.36;72.94;97109.28;5031449;28;20746;-74
2022/06/26 03:36:48;;;;;;;2.08;1.52;;;19.10;99.90;;;18.34;73.16;97110.72;5031043;28;20899;-75
2022/06/26 03:39:14;;;;;;;2.20;1.30;;;19.00;99.90;;;18.33;73.16;97115.28;5030592;28;20404;-75
2022/06/26 03:41:57;;;;;;;2.53;1.40;;;19.00;99.90;;;18.32;73.16;97118.25;5030908;28;20406;-75
2022/06/26 03:44:24;;;;;;;2.38;1.50;;;19.00;99.90;;;18.34;73.30;97129.47;5030475;28;20877;-74
2022/06/26 03:46:50;;;;;;;1.65;1.50;;;19.00;99.90;;;18.33;73.06;97141.28;5030911;28;20406;-75
2022/06/26 03:49:15;;;;;;;1.50;1.30;;;19.00;99.90;;;18.30;73.17;97141.88;5030389;28;20415;-75
2022/06/26 03:51:41;;;;;;;1.77;1.48;;;19.00;99.90;;;18.30;73.30;97142.66;5030857;28;20445;-74
2022/06/26 03:54:07;;;;;;;1.50;1.40;;;19.00;99.90;;;18.29;73.12;97140.28;5031088;28;20962;-75
2022/06/26 03:56:33;;;;;;;1.40;1.30;;;19.00;99.90;;;18.29;73.40;97141.09;5030569;28;20490;-74
2022/06/26 03:59:00;;;;;;;2.30;1.42;;;19.00;99.90;;;18.30;73.23;97145.34;5030178;28;20404;-75
2022/06/26 04:01:26;;;;;;;2.30;1.50;;;19.00;99.90;;;18.32;72.88;97139.69;5030655;28;20494;-74
2022/06/26 04:03:52;;;;;;;2.47;1.40;;;19.00;99.90;;;18.36;73.10;97137.97;5030881;28;20792;-75
2022/06/26 04:06:18;;;;;;;1.60;1.30;;;19.00;99.90;;;18.39;73.46;97148.88;5030470;28;20403;-75
2022/06/26 04:08:44;;;;;;;1.20;1.10;;;19.10;99.90;;;18.44;73.51;97151.41;5029997;28;20431;-74
2022/06/26 04:11:10;;;;;;;2.30;1.20;;;19.10;99.90;;;18.46;73.61;97145.75;5030521;28;20404;-75
2022/06/26 04:13:36;;;;;;;1.70;1.35;;;19.20;99.90;;;18.48;73.57;97157.75;5030548;28;20407;-75
2022/06/26 04:16:04;;;;;;;2.00;1.10;;;19.20;99.90;;;18.47;73.59;97152.69;5030311;28;20403;-75
2022/06/26 04:18:30;;;;;;;2.63;1.40;;;19.20;99.90;;;18.47;73.51;97155.38;5029925;28;20414;-75
2022/06/26 04:20:56;;;;;;;1.45;1.10;;;19.20;99.90;;;18.44;73.49;97147.94;5030051;28;20399;-75
2022/06/26 04:23:22;;;;;;;2.03;1.30;;;19.10;99.90;;;18.43;73.90;97151.72;5030329;28;20936;-75
2022/06/26 04:25:47;;;;;;;1.25;1.15;;;19.10;99.90;;;18.40;74.12;97153.16;5030292;28;20407;-74
2022/06/26 04:28:14;;;;;;;1.77;1.30;;;19.10;99.90;;;18.39;74.61;97154.25;5029736;28;20484;-74
2022/06/26 04:30:40;;;;;;;2.00;1.40;;;19.10;99.90;;;18.35;74.78;97145.22;5029983;28;20896;-75
2022/06/26 04:33:08;;;;;;;1.60;1.40;;;19.10;99.90;;;18.33;75.03;97152.00;5030054;28;20453;-74
2022/06/26 04:35:34;;;;;;;2.50;1.45;;;19.00;99.90;;;18.29;75.34;97146.44;5030183;28;20781;-74
2022/06/26 04:38:00;;;;;;;2.30;1.40;;;19.00;99.90;;;18.27;75.46;97134.47;5030042;28;20956;-75
2022/06/26 04:40:26;;;;;;;1.98;1.48;;;18.90;99.90;;;18.26;75.24;97139.03;5029745;28;20498;-74
2022/06/26 04:42:53;;;;;;;1.65;1.40;;;18.90;99.90;;;18.26;75.16;97131.00;5030142;28;20405;-74
2022/06/26 04:45:20;;;;;;;2.33;1.52;;;18.90;99.90;;;18.27;75.25;97132.56;5027088;28;20407;-74
2022/06/26 04:47:45;;;;;;;1.77;1.48;;;18.90;99.90;;;18.31;75.37;97130.06;5029807;28;20396;-75
2022/06/26 04:50:13;;;;;;;2.33;1.60;;;19.00;99.90;;;18.38;75.10;97139.25;5029255;28;20503;-75
2022/06/26 04:52:43;;;;;;;1.70;1.33;;;19.00;99.90;;;18.43;74.96;97130.28;5030050;28;20395;-74
2022/06/26 04:55:09;;;;;;;1.98;1.40;;;19.10;99.90;;;18.50;75.00;97130.63;5020714;28;20405;-74
2022/06/26 04:57:35;;;;;;;2.83;1.37;;;19.20;99.90;;;18.58;74.87;97129.91;5026239;28;20451;-74
2022/06/26 05:00:00;;;;;;;2.13;1.50;;;19.20;99.90;;;18.69;74.51;97127.75;5029253;28;20490;-74
2022/06/26 05:02:27;;;;;;;1.80;1.50;;;19.30;99.90;;;18.76;74.37;97133.47;5029247;28;20395;-74
2022/06/26 05:04:53;;;;;;;1.50;1.40;;;19.40;99.90;;;18.81;74.16;97142.16;5018584;28;20407;-74
2022/06/26 05:07:20;;;;;;;1.77;1.40;;;19.50;99.90;;;18.83;73.28;97145.34;5014871;28;20436;-74
2022/06/26 05:09:46;;;;;;;2.00;1.50;;;19.50;99.90;;;18.90;73.64;97147.56;5009630;28;20883;-74
2022/06/26 05:12:12;;;;;;;2.40;1.40;;;19.50;99.90;;;18.95;73.66;97139.38;5017059;28;20489;-74
2022/06/26 05:14:38;;;;;;;1.95;1.30;;;19.60;99.90;;;19.01;73.62;97150.78;5009885;28;20411;-74
2022/06/26 05:17:04;;;;;;;2.40;1.60;;;19.60;99.90;;;19.06;73.74;97153.31;5022684;28;20926;-76
2022/06/26 05:19:30;;;;;;;2.00;1.50;;;19.70;99.90;;;19.08;73.52;97156.47;5029084;28;20403;-75
2022/06/26 05:21:56;;;;;;;2.23;1.50;;;19.70;99.90;;;19.08;73.75;97157.25;5029386;28;20495;-74
2022/06/26 05:24:23;;;;;;;1.70;1.50;;;19.70;99.90;;;19.09;73.69;97161.53;5029590;28;20399;-73
2022/06/26 05:26:49;;;;;;;2.53;1.50;;;19.70;99.90;;;19.12;73.79;97176.19;5029581;28;20484;-75
2022/06/26 05:29:15;;;;;;;2.85;1.40;;;19.70;99.90;;;19.16;73.73;97174.50;5028968;28;20803;-75
2022/06/26 05:31:41;;;;;;;1.60;1.50;;;19.80;99.90;;;19.21;73.87;97177.03;5029252;28;20434;-74
2022/06/26 05:34:07;;;;;;;1.70;1.48;;;19.80;99.90;;;19.27;74.04;97175.78;5026490;28;20887;-75
2022/06/26 05:36:33;;;;;;;2.47;1.50;;;19.90;99.90;;;19.32;74.14;97176.41;5014518;28;20483;-75
2022/06/26 05:38:59;;;;;;;1.63;1.42;;;19.90;99.90;;;19.39;74.04;97170.59;5015879;28;20419;-75
2022/06/26 05:41:26;;;;;;;2.40;1.40;;;20.00;99.90;;;19.42;74.16;97186.06;5029295;28;20430;-75
2022/06/26 05:43:52;;;;;;;2.83;1.55;;;20.00;99.90;;;19.45;74.02;97185.47;5029503;28;20491;-76
2022/06/26 05:46:18;;;;;;;1.63;1.52;;;20.00;99.90;;;19.45;73.78;97181.97;5016796;28;20496;-76
2022/06/26 05:48:44;;;;;;;1.80;1.40;;;20.10;99.90;;;19.44;73.82;97188.44;5009105;28;20408;-76
2022/06/26 05:51:10;;;;;;;1.77;1.65;;;20.10;99.90;;;19.39;74.07;97181.34;5009342;28;20487;-75
2022/06/26 05:53:37;;;;;;;2.35;1.40;;;20.00;99.90;;;19.34;74.12;97189.53;5009695;28;20408;-77
2022/06/26 05:56:04;;;;;;;1.63;1.45;;;20.00;99.90;;;19.29;74.54;97197.72;5009493;28;20405;-76
2022/06/26 05:58:31;;;;;;;2.75;1.63;;;20.00;99.90;;;19.25;74.98;97194.88;5021584;23;20527;-76
2022/06/26 06:00:57;;;;;;;2.03;1.40;;;19.90;99.90;;;19.27;75.20;97195.34;5009442;28;20415;-75
2022/06/26 06:03:23;;;;;;;1.65;1.45;;;19.90;99.90;;;19.30;75.35;97192.06;5009396;28;20436;-75
2022/06/26 06:05:49;;;;;;;3.20;1.50;;;19.90;99.90;;;19.35;75.52;97193.78;5009504;28;20404;-74
2022/06/26 06:08:14;;;;;;;1.90;1.60;;;20.00;99.90;;;19.40;75.30;97203.59;5010707;28;20404;-76
2022/06/26 06:10:41;;;;;;;2.33;1.45;;;20.00;99.90;;;19.43;75.28;97194.91;5011598;28;20494;-76
2022/06/26 06:13:07;;;;;;;1.52;1.40;;;20.00;99.90;;;19.47;74.89;97195.91;5011901;28;20884;-76
2022/06/26 06:15:34;;;;;;;1.50;1.40;;;20.10;99.90;;;19.51;74.71;97194.19;5012629;28;20492;-76
2022/06/26 06:18:00;;;;;;;1.75;1.40;;;20.10;99.90;;;19.55;74.32;97192.44;5012845;28;20471;-77
2022/06/26 06:20:26;;;;;;;1.30;1.20;;;20.20;99.90;;;19.57;72.96;97187.56;5012426;28;20838;-77
2022/06/26 06:22:59;;;;;;;1.48;1.08;;;20.20;99.90;;;19.61;72.12;97194.69;5012882;28;20415;-77
2022/06/26 06:25:26;;;;;;;1.05;0.93;;;20.20;99.90;;;19.65;71.29;97195.63;5012874;28;20405;-78
2022/06/26 06:27:52;;;;;;;1.10;0.90;;;20.30;99.90;;;19.68;70.35;97205.75;5012685;28;20400;-78
2022/06/26 06:30:19;;;;;;;1.42;0.95;;;20.30;99.90;;;19.74;69.51;97190.28;5011851;28;20466;-77
2022/06/26 06:32:46;;;;;;;1.40;1.00;;;20.30;99.90;;;19.79;68.55;97192.00;5012675;28;20424;-76
2022/06/26 06:35:13;;;;;;;2.35;1.10;;;20.40;99.90;;;19.85;67.76;97194.22;5012720;28;20409;-77
2022/06/26 06:37:40;;;;;;;1.30;1.00;;;20.40;99.70;;;19.90;66.41;97204.03;5027736;28;20776;-77
2022/06/26 06:40:08;;;;;;;0.98;0.90;;;20.50;97.40;;;19.94;65.83;97208.44;5013061;28;20917;-77
2022/06/26 06:42:34;;;;;;;1.10;0.98;;;20.50;96.90;;;19.96;65.42;97198.19;5012683;28;20962;-81
2022/06/26 06:45:00;;;;;;;1.10;0.90;;;20.60;96.10;;;19.95;65.44;97212.72;5012536;28;20435;-79
2022/06/26 06:47:26;;;;;;;2.40;1.30;;;20.60;95.90;;;19.93;64.95;97206.88;5011029;28;20421;-80
2022/06/26 06:49:54;;;;;;;0.90;0.90;;;20.50;95.30;;;19.91;65.29;97209.09;5010404;28;20408;-79
2022/06/26 06:52:19;;;;;;;1.13;0.90;;;20.50;95.50;;;19.90;65.31;97206.72;5012096;28;20452;-79
2022/06/26 06:54:45;;;;;;;0.82;0.80;;;20.50;95.50;;;19.88;65.16;97208.91;5012810;28;20458;-79
2022/06/26 06:57:11;;;;;;;1.45;0.90;;;20.50;95.40;;;19.88;65.10;97203.53;5011921;28;20435;-73
2022/06/26 06:59:37;;;;;;;0.90;0.80;;;20.50;95.20;;;19.89;64.56;97213.19;5011571;28;20416;-72
2022/06/26 07:02:04;;;;;;;0.80;0.80;;;20.50;94.50;;;19.91;64.45;97227.91;5012024;28;20806;-73
2022/06/26 07:04:30;;;;;;;0.98;0.88;;;20.50;94.20;;;19.94;64.21;97229.16;5012047;28;20405;-72
2022/06/26 07:06:57;;;;;;;1.60;0.93;;;20.50;93.90;;;19.96;64.20;97226.94;5011915;28;20400;-72
2022/06/26 07:09:23;;;;;;;1.00;0.90;;;20.50;93.90;;;19.98;64.30;97224.75;5011235;28;20832;-71
2022/06/26 07:11:49;;;;;;;0.80;0.80;;;20.60;93.80;;;20.01;64.05;97232.16;5011305;28;20421;-74
2022/06/26 07:14:15;;;;;;;1.43;1.17;;;20.60;93.60;;;20.02;63.96;97231.06;5011681;28;20795;-74
2022/06/26 07:16:41;;;;;;;1.73;1.00;;;20.60;93.50;;;20.05;62.80;97230.44;5009958;28;20413;-78
2022/06/26 07:19:07;;;;;;;1.00;0.80;;;20.60;92.20;;;20.11;61.92;97218.41;5010308;28;20467;-77
2022/06/26 07:21:33;;;;;;;2.05;1.08;;;20.70;91.20;;;20.15;61.51;97218.59;5011873;28;20404;-76
2022/06/26 07:24:01;;;;;;;1.70;1.00;;;20.70;91.30;;;20.27;61.37;97216.84;5012291;28;20417;-79
2022/06/26 07:26:27;;;;;;;2.53;1.10;;;20.80;90.30;;;20.33;60.17;97212.06;5013486;28;20487;-77
2022/06/26 07:28:53;;;;;;;2.55;1.20;;;20.90;88.60;;;20.42;60.26;97212.91;5011373;28;20400;-82
2022/06/26 07:31:19;;;;;;;2.60;1.30;;;21.00;88.40;;;20.48;59.71;97217.78;5011451;28;20416;-79
2022/06/26 07:36:30;;;;;;;1.75;1.10;;;21.10;88.40;;;20.62;61.26;97232.94;5012101;28;20399;-75
2022/06/26 07:38:55;;;;;;;2.60;1.00;;;21.20;89.60;;;20.65;61.73;97229.63;5011670;28;20463;-75
2022/06/26 07:41:23;;;;;;;1.13;1.00;;;21.20;90.10;;;20.67;61.83;97230.91;5011198;28;20440;-77
2022/06/26 07:43:49;;;;;;;2.07;1.10;;;21.20;90.30;;;20.72;61.98;97229.94;5026520;28;20446;-76
2022/06/26 07:46:15;;;;;;;1.40;1.05;;;21.20;90.60;;;20.75;61.69;97224.69;5011207;28;20926;-76
2022/06/26 07:48:41;;;;;;;2.53;1.17;;;21.30;90.30;;;20.81;61.57;97217.25;5010401;28;20416;-75
2022/06/26 07:51:07;;;;;;;1.95;1.15;;;21.30;90.10;;;20.89;61.81;97215.66;5010400;28;20401;-77
2022/06/26 07:53:33;;;;;;;1.02;0.90;;;21.40;90.30;;;20.97;61.47;97223.69;5008231;28;20774;-76
2022/06/26 07:55:59;;;;;;;1.15;1.02;;;21.50;90.20;;;21.02;61.17;97218.13;5010119;28;20400;-76
2022/06/26 07:58:26;;;;;;;0.80;0.80;;;21.50;90.00;;;21.06;60.98;97227.13;5009675;28;20428;-74
2022/06/26 08:00:52;;;;;;;0.95;0.88;;;21.60;89.30;;;21.10;59.99;97209.22;5010417;28;20408;-76
2022/06/26 08:03:18;;;;;;;1.70;1.00;;;21.60;87.20;;;21.14;60.29;97203.97;5008736;28;20495;-76
2022/06/26 08:05:46;;;;;;;1.02;0.90;;;21.60;87.50;;;21.21;60.75;97210.47;5009817;28;20404;-73
2022/06/26 08:08:12;;;;;;;1.55;0.90;;;21.80;88.20;;;21.24;58.63;97207.13;5010237;28;20407;-74
2022/06/26 08:10:39;;;;;;;2.47;1.03;;;21.80;84.80;;;21.34;59.44;97205.19;5010645;28;20408;-73
2022/06/26 08:13:05;;;;;;;2.90;1.02;;;21.90;85.60;;;21.40;59.14;97210.06;5010914;28;20405;-74
2022/06/26 08:15:33;;;;;;;2.30;1.10;;;21.90;84.90;;;21.49;58.34;97210.03;5010761;28;20775;-75
2022/06/26 08:17:59;;;;;;;1.50;1.08;;;22.00;83.30;;;21.58;59.04;97211.53;5010404;28;20960;-73
2022/06/26 08:20:25;;;;;;;2.42;1.10;;;22.10;84.20;;;21.66;59.34;97211.81;5009877;28;20412;-74
2022/06/26 08:22:51;;;;;;;4.00;1.10;;;22.20;84.50;;;21.77;59.35;97216.50;5010672;28;20455;-75
2022/06/26 08:25:17;;;;;;;2.58;1.20;;;22.30;84.90;;;21.82;56.56;97210.91;5010432;28;20491;-75
2022/06/26 08:27:43;;;;;;;1.00;0.90;;;22.40;80.80;;;21.83;55.69;97214.41;5010492;28;20404;-75
2022/06/26 08:30:10;;;;;;;1.60;1.13;;;22.40;78.20;;;21.91;55.43;97217.03;5009651;28;20495;-75
2022/06/26 08:32:38;;;;;;;2.47;1.00;;;22.40;77.60;;;21.98;57.16;97221.94;5010669;28;20962;-73
2022/06/26 08:35:05;;;;;;;3.28;1.25;;;22.50;80.00;;;22.07;57.70;97221.88;5010385;28;20814;-74
2022/06/26 08:37:31;;;;;;;1.95;1.05;;;22.60;80.90;;;22.16;57.96;97222.59;5010576;28;20471;-75
2022/06/26 08:39:57;;;;;;;1.27;1.00;;;22.70;81.60;;;22.28;58.17;97219.94;5009683;28;20416;-75
2022/06/26 08:42:24;;;;;;;1.20;1.10;;;22.70;82.80;;;22.37;57.92;97213.38;5010247;28;20404;-75
2022/06/26 08:44:51;;;;;;;1.73;1.05;;;22.90;81.50;;;22.44;58.04;97218.22;5008965;28;20415;-74
2022/06/26 08:47:21;;;;;;;1.20;1.10;;;22.90;81.60;;;22.55;58.24;97211.31;5010005;28;20803;-73
2022/06/26 08:49:48;;;;;;;1.65;1.05;;;23.00;82.00;;;22.71;57.58;97219.53;5009728;28;20404;-73
2022/06/26 08:52:19;;;;;;;1.25;0.90;;;23.20;81.20;;;22.81;57.85;97226.44;5009962;28;20435;-74
2022/06/26 08:54:46;;;;;;;1.80;1.05;;;23.30;81.60;;;22.84;57.51;97225.81;5010055;28;20422;-74
2022/06/26 08:57:13;;;;;;;2.05;1.10;;;23.30;80.70;;;22.89;57.15;97218.28;5010013;28;20417;-74
2022/06/26 08:59:39;;;;;;;0.98;0.90;;;23.40;80.30;;;22.90;55.92;97219.06;5009494;28;20946;-74
2022/06/26 09:02:05;;;;;;;3.00;1.00;;;23.40;79.60;;;22.92;55.25;97219.53;5010032;28;20467;-76
2022/06/26 09:04:31;;;;;;;1.30;0.90;;;23.40;77.30;;;22.95;54.42;97216.13;5009964;28;20412;-75
2022/06/26 09:06:58;;;;;;;1.33;0.93;;;23.40;75.40;;;23.03;55.53;97215.25;5008712;28;20417;-75
2022/06/26 09:09:27;;;;;;;2.58;0.98;;;23.50;77.10;;;22.94;52.33;97225.34;5009208;28;20905;-75
2022/06/26 09:11:55;;;;;;;1.20;1.10;;;23.50;72.50;;;22.95;54.03;97227.72;5009617;28;20401;-75
2022/06/26 09:14:22;;;;;;;1.40;1.10;;;23.50;72.90;;;23.19;52.01;97232.38;5008550;28;20787;-75
2022/06/26 09:16:50;;;;;;;2.13;1.00;;;23.60;72.10;;;23.26;51.45;97227.19;5009850;28;20416;-75
2022/06/26 09:19:20;;;;;;;3.38;1.02;;;23.70;70.30;;;23.26;51.95;97226.41;5007847;28;20483;-74
2022/06/26 09:21:47;;;;;;;1.40;0.90;;;23.70;70.80;;;23.22;53.49;97231.72;5009597;28;20405;-73
2022/06/26 09:24:19;;;;;;;1.10;1.00;;;23.70;72.50;;;23.30;54.35;97228.13;5009684;28;20904;-73
2022/06/26 09:27:00;;;;;;;1.00;0.80;;;23.80;74.30;;;23.39;55.15;97230.69;5010075;28;20459;-74
2022/06/26 09:29:26;;;;;;;3.15;1.00;;;23.80;75.60;;;23.52;54.81;97222.28;5009310;28;20436;-74
2022/06/26 09:31:52;;;;;;;0.80;0.80;;;24.00;75.70;;;23.67;54.89;97234.34;5009616;28;20413;-73
2022/06/26 09:34:24;;;;;;;1.27;1.00;;;24.10;75.00;;;23.82;54.82;97238.25;5009422;28;20408;-73
2022/06/26 09:36:58;;;;;;;1.27;1.00;;;24.30;75.30;;;23.97;53.12;97234.06;5009542;28;20484;-74
2022/06/26 09:39:25;;;;;;;1.10;0.80;;;24.40;73.10;;;24.18;54.05;97232.75;5009109;28;20397;-74
2022/06/26 09:41:52;;;;;;;1.00;0.90;;;24.60;74.20;;;24.37;53.63;97237.56;5009573;28;20443;-74
2022/06/26 09:44:19;;;;;;;1.47;0.90;;;24.80;73.80;;;24.49;51.93;97242.94;5013436;28;20413;-73
2022/06/26 09:46:45;;;;;;;1.20;0.80;;;24.90;71.70;;;24.77;52.08;97239.44;5013205;28;20408;-73
2022/06/26 09:49:12;;;;;;;0.88;0.77;;;25.10;71.20;;;24.98;51.76;97238.09;5012688;28;20409;-73
2022/06/26 09:51:39;;;;;;;0.90;0.88;;;25.30;70.80;;;25.30;51.80;97219.13;5012853;28;20397;-74
2022/06/26 09:54:06;;;;;;;0.87;0.73;;;25.60;71.00;;;25.52;48.98;97233.97;5013092;28;20563;-73
2022/06/26 09:56:33;;;;;;;1.00;0.90;;;25.90;68.00;;;25.60;47.68;97227.63;5013134;28;20502;-74
2022/06/26 09:58:59;;;;;;;0.88;0.88;;;26.00;64.90;;;25.70;45.75;97229.78;5012566;28;20474;-73
2022/06/26 10:07:01;;;;;;;1.75;0.80;;;25.90;66.30;;;25.39;47.72;97225.16;5012840;28;20451;-74
2022/06/26 10:09:28;;;;;;;0.80;0.80;;;25.90;64.00;;;25.47;48.85;97229.63;5012436;28;20423;-74
2022/06/26 10:11:59;;;;;;;1.13;0.80;;;25.90;65.50;;;25.38;47.96;97216.25;5013008;28;20397;-74
2022/06/26 10:14:32;;;;;;;1.08;0.90;;;25.80;64.60;;;25.34;48.77;97236.25;5013036;28;20396;-74
2022/06/26 10:17:29;;;;;;;1.00;0.80;;;25.80;65.40;;;25.24;48.67;97223.25;5012823;28;20401;-74
2022/06/26 10:19:57;;;;;;;1.40;1.10;;;25.70;65.40;;;25.30;47.13;97228.06;5012041;28;20417;-74
2022/06/26 10:22:23;;;;;;;1.83;1.30;;;25.80;63.00;;;25.27;49.57;97228.75;5012395;28;20452;-74
2022/06/26 10:24:52;;;;;;;1.35;1.00;;;25.70;66.10;;;25.36;51.36;97223.94;5012693;28;20401;-74
2022/06/26 10:27:26;;;;;;;1.50;0.80;;;25.70;68.60;;;25.44;49.72;97212.13;5012564;28;20408;-74
2022/06/26 10:30:08;;;;;;;1.80;0.80;;;25.80;66.50;;;25.52;47.78;97213.09;5012077;28;20394;-74